createdAt,value
2018-05-08T00:01:37.502Z,53.60
2018-05-08T00:04:11.894Z,53.90
2018-05-08T00:06:46.584Z,54.30
2018-05-08T00:09:21.854Z,54.50
2018-05-08T00:11:56.434Z,54.50
2018-05-08T00:14:31.142Z,55.00
2018-05-08T00:17:05.677Z,55.20
2018-05-08T00:19:40.961Z,55.80
2018-05-08T00:22:15.627Z,55.60
2018-05-08T00:24:50.138Z,55.80
2018-05-08T00:27:25.586Z,55.90
2018-05-08T00:30:00.501Z,55.80
2018-05-08T00:32:35.504Z,56.00
2018-05-08T00:35:09.987Z,56.20
2018-05-08T00:37:44.843Z,56.40
2018-05-08T00:40:19.398Z,56.60
2018-05-08T00:42:55.891Z,56.90
2018-05-08T00:45:31.068Z,57.40
2018-05-08T00:48:05.746Z,57.30
2018-05-08T00:50:40.477Z,57.60
2018-05-08T00:53:15.234Z,57.90
2018-05-08T00:55:49.808Z,58.30
2018-05-08T00:58:24.466Z,58.50
2018-05-08T01:00:58.925Z,58.80
2018-05-08T01:03:33.500Z,58.90
2018-05-08T01:06:08.175Z,59.00
2018-05-08T01:08:43.366Z,59.40
2018-05-08T01:11:17.939Z,59.70
2018-05-08T01:13:52.835Z,60.00
2018-05-08T01:16:27.464Z,60.30
2018-05-08T01:19:03.342Z,60.50
2018-05-08T01:21:37.791Z,60.40
2018-05-08T01:24:14.653Z,60.40
2018-05-08T01:26:51.503Z,60.40
2018-05-08T01:29:26.132Z,60.40
2018-05-08T01:32:01.382Z,60.70
2018-05-08T01:34:36.532Z,61.10
2018-05-08T01:37:11.430Z,61.20
2018-05-08T01:39:46.998Z,62.00
2018-05-08T01:42:22.799Z,61.90
2018-05-08T01:44:57.824Z,62.10
2018-05-08T01:47:32.236Z,62.10
2018-05-08T01:50:06.875Z,62.30
2018-05-08T01:52:42.081Z,62.50
2018-05-08T01:55:16.525Z,62.80
2018-05-08T01:57:51.058Z,63.00
2018-05-08T02:00:26.307Z,63.60
2018-05-08T02:03:01.071Z,63.60
2018-05-08T02:05:36.133Z,63.70
2018-05-08T02:08:11.150Z,63.70
2018-05-08T02:10:45.968Z,63.90
2018-05-08T02:13:20.548Z,64.00
2018-05-08T02:15:55.232Z,64.00
2018-05-08T02:18:29.746Z,64.10
2018-05-08T02:21:05.216Z,64.60
2018-05-08T02:23:40.191Z,64.50
2018-05-08T02:26:15.010Z,65.00
2018-05-08T02:28:49.473Z,65.20
2018-05-08T02:31:24.150Z,65.40
2018-05-08T02:33:58.867Z,65.70
2018-05-08T02:36:33.502Z,65.90
2018-05-08T02:39:09.381Z,66.00
2018-05-08T02:41:43.881Z,66.20
2018-05-08T02:44:18.603Z,66.60
2018-05-08T02:46:53.087Z,66.80
2018-05-08T02:49:27.645Z,67.00
2018-05-08T02:52:02.793Z,67.10
2018-05-08T02:54:37.559Z,67.40
2018-05-08T02:57:12.290Z,67.90
2018-05-08T02:59:46.932Z,68.00
2018-05-08T03:02:21.737Z,68.10
2018-05-08T03:04:57.870Z,68.60
2018-05-08T03:07:33.224Z,68.90
2018-05-08T03:10:07.822Z,68.80
2018-05-08T03:12:43.301Z,69.20
2018-05-08T03:15:19.027Z,69.40
2018-05-08T03:17:53.634Z,69.50
2018-05-08T03:20:28.391Z,69.50
2018-05-08T03:23:04.145Z,69.80
2018-05-08T03:25:38.875Z,69.70
2018-05-08T03:28:13.798Z,69.90
2018-05-08T03:30:48.294Z,70.00
2018-05-08T03:33:24.264Z,70.20
2018-05-08T03:35:59.916Z,70.50
2018-05-08T03:38:34.633Z,70.40
2018-05-08T03:41:09.392Z,70.50
2018-05-08T03:43:44.654Z,70.90
2018-05-08T03:46:19.071Z,71.10
2018-05-08T03:48:53.906Z,71.30
2018-05-08T03:51:29.027Z,71.40
2018-05-08T03:54:03.769Z,71.60
2018-05-08T03:56:38.363Z,71.80
2018-05-08T03:59:13.171Z,72.00
2018-05-08T04:04:04.460Z,72.10
2018-05-08T04:06:46.028Z,72.60
2018-05-08T04:09:20.721Z,72.60
2018-05-08T04:11:55.291Z,72.80
2018-05-08T04:14:29.812Z,73.00
2018-05-08T04:17:04.519Z,73.10
2018-05-08T04:19:41.625Z,73.20
2018-05-08T04:22:17.646Z,73.30
2018-05-08T04:24:52.188Z,73.40
2018-05-08T04:27:27.496Z,73.60
2018-05-08T04:30:02.877Z,73.80
2018-05-08T04:32:37.397Z,73.70
2018-05-08T04:35:14.075Z,73.90
2018-05-08T04:37:48.583Z,73.90
2018-05-08T04:40:23.567Z,74.00
2018-05-08T04:42:58.973Z,74.40
2018-05-08T04:45:33.483Z,74.20
2018-05-08T04:48:14.540Z,74.30
2018-05-08T04:50:53.748Z,74.40
2018-05-08T04:53:34.181Z,74.70
2018-05-08T04:56:13.216Z,74.70
2018-05-08T04:58:48.908Z,74.70
2018-05-08T05:01:23.657Z,74.70
2018-05-08T05:03:58.310Z,74.70
2018-05-08T05:06:35.373Z,74.60
2018-05-08T05:09:33.166Z,74.40
2018-05-08T05:12:19.056Z,74.20
2018-05-08T05:15:03.127Z,74.20
2018-05-08T05:20:40.007Z,73.80
2018-05-08T05:23:21.541Z,73.30
2018-05-08T05:26:02.183Z,73.30
2018-05-08T05:28:37.766Z,72.10
2018-05-08T05:31:12.288Z,72.10
2018-05-08T05:33:47.793Z,72.20
2018-05-08T05:36:24.216Z,71.70
2018-05-08T05:45:03.015Z,70.20
2018-05-08T05:47:46.670Z,69.50
2018-05-08T05:50:30.665Z,69.50
2018-05-08T05:53:09.672Z,69.30
2018-05-08T05:55:45.923Z,69.20
2018-05-08T05:58:20.331Z,69.10
2018-05-08T06:00:54.776Z,68.50
2018-05-08T06:03:34.831Z,67.20
2018-05-08T06:06:15.672Z,66.60
2018-05-08T06:08:50.464Z,66.20
2018-05-08T06:11:26.052Z,65.80
2018-05-08T06:14:00.592Z,65.00
2018-05-08T06:16:35.011Z,63.80
2018-05-08T06:19:09.680Z,63.20
2018-05-08T06:21:44.336Z,62.70
2018-05-08T06:24:19.511Z,61.40
2018-05-08T06:26:54.808Z,59.40
2018-05-08T06:29:36.620Z,59.40
2018-05-08T06:32:20.380Z,58.00
2018-05-08T06:35:00.194Z,57.50
2018-05-08T06:37:34.950Z,57.50
2018-05-08T06:40:09.645Z,57.10
2018-05-08T06:42:44.233Z,57.00
2018-05-08T06:45:18.806Z,56.80
2018-05-08T06:47:53.384Z,56.00
2018-05-08T06:50:27.963Z,55.20
2018-05-08T06:53:06.647Z,54.10
2018-05-08T06:55:41.408Z,54.10
2018-05-08T06:58:15.905Z,53.30
2018-05-08T07:00:51.164Z,51.30
2018-05-08T07:03:26.119Z,51.30
2018-05-08T07:06:01.533Z,49.20
2018-05-08T07:08:36.779Z,47.80
2018-05-08T07:11:13.494Z,46.90
2018-05-08T07:13:48.882Z,46.90
2018-05-08T07:16:23.499Z,46.10
2018-05-08T07:19:00.068Z,44.30
2018-05-08T07:21:34.551Z,44.30
2018-05-08T07:24:13.781Z,43.40
2018-05-08T07:26:48.551Z,42.70
2018-05-08T07:29:23.219Z,42.20
2018-05-08T07:31:58.847Z,41.70
2018-05-08T07:34:33.332Z,41.70
2018-05-08T07:37:08.903Z,41.20
2018-05-08T07:39:48.229Z,41.10
2018-05-08T07:42:32.131Z,40.60
2018-05-08T07:45:11.693Z,40.20
2018-05-08T07:47:46.287Z,40.10
2018-05-08T07:50:20.824Z,39.70
2018-05-08T07:52:55.337Z,39.10
2018-05-08T07:55:29.882Z,38.70
2018-05-08T07:58:05.405Z,37.30
2018-05-08T08:00:39.872Z,37.20
2018-05-08T08:03:14.470Z,37.00
2018-05-08T08:05:49.015Z,37.00
2018-05-08T08:08:24.371Z,36.40
2018-05-08T08:10:59.450Z,36.40
2018-05-08T08:13:33.937Z,36.40
2018-05-08T08:16:08.503Z,36.30
2018-05-08T08:18:43.335Z,35.80
2018-05-08T08:21:17.916Z,35.00
2018-05-08T08:23:52.502Z,35.00
2018-05-08T08:26:27.031Z,35.00
2018-05-08T08:29:02.718Z,33.90
2018-05-08T08:31:38.071Z,33.40
2018-05-08T08:34:12.478Z,33.40
2018-05-08T08:36:47.620Z,33.10
2018-05-08T08:39:22.851Z,33.00
2018-05-08T08:41:58.303Z,32.90
2018-05-08T08:44:33.146Z,32.40
2018-05-08T08:47:09.916Z,31.70
2018-05-08T08:49:45.345Z,31.50
2018-05-08T08:52:19.805Z,31.50
2018-05-08T08:54:55.117Z,31.30
2018-05-08T08:57:30.001Z,31.00
2018-05-08T09:00:04.787Z,30.60
2018-05-08T09:02:39.739Z,31.00
2018-05-08T09:08:26.815Z,30.10
2018-05-08T09:11:08.461Z,30.10
2018-05-08T09:13:43.059Z,30.60
2018-05-08T09:16:18.218Z,30.30
2018-05-08T09:18:52.818Z,30.20
2018-05-08T09:21:27.673Z,30.00
2018-05-08T09:24:02.971Z,29.40
2018-05-08T09:26:37.563Z,29.40
2018-05-08T09:29:12.128Z,29.80
2018-05-08T09:31:47.123Z,29.20
2018-05-08T09:34:21.580Z,28.90
2018-05-08T09:36:56.270Z,28.70
2018-05-08T09:39:31.013Z,28.50
2018-05-08T09:42:06.310Z,28.10
2018-05-08T09:47:21.073Z,27.70
2018-05-08T09:49:55.651Z,27.70
2018-05-08T09:52:31.767Z,28.00
2018-05-08T09:55:10.942Z,28.30
2018-05-08T09:57:50.280Z,28.40
2018-05-08T10:00:25.047Z,28.00
2018-05-08T10:02:59.662Z,28.00
2018-05-08T10:08:37.438Z,27.20
2018-05-08T10:11:12.286Z,26.90
2018-05-08T10:13:47.450Z,26.40
2018-05-08T10:16:22.268Z,26.40
2018-05-08T10:18:57.143Z,26.30
2018-05-08T10:21:32.738Z,25.80
2018-05-08T10:24:15.328Z,25.70
2018-05-08T10:27:34.646Z,25.20
2018-05-08T10:30:09.307Z,24.50
2018-05-08T10:32:44.301Z,23.90
2018-05-08T10:35:19.320Z,24.30
2018-05-08T10:37:54.074Z,24.30
2018-05-08T10:40:29.271Z,24.70
2018-05-08T10:43:04.061Z,24.80
2018-05-08T10:45:39.083Z,24.60
2018-05-08T10:48:13.994Z,25.30
2018-05-08T10:50:52.455Z,25.00
2018-05-08T10:53:27.374Z,24.60
2018-05-08T10:56:03.231Z,24.70
2018-05-08T10:58:45.478Z,24.90
2018-05-08T11:01:22.043Z,24.50
2018-05-08T11:03:56.942Z,23.90
2018-05-08T11:06:31.676Z,23.80
2018-05-08T11:09:13.021Z,24.10
2018-05-08T11:11:47.930Z,24.10
2018-05-08T11:14:23.035Z,24.10
2018-05-08T11:16:59.752Z,23.40
2018-05-08T11:19:34.338Z,23.40
2018-05-08T11:22:09.797Z,23.10
2018-05-08T11:25:09.421Z,23.10
2018-05-08T11:27:50.510Z,23.00
2018-05-08T11:30:28.485Z,21.80
2018-05-08T11:33:04.141Z,22.10
2018-05-08T11:35:39.027Z,22.00
2018-05-08T11:38:16.419Z,21.90
2018-05-08T11:40:55.285Z,21.60
2018-05-08T11:43:31.090Z,21.90
2018-05-08T11:46:10.066Z,21.90
2018-05-08T11:48:55.877Z,22.30
2018-05-08T11:51:36.113Z,22.00
2018-05-08T11:54:11.010Z,22.00
2018-05-08T11:56:45.906Z,22.60
2018-05-08T11:59:20.627Z,22.20
2018-05-08T12:01:55.238Z,22.10
2018-05-08T12:04:30.359Z,21.90
2018-05-08T12:07:05.153Z,21.90
2018-05-08T12:09:39.720Z,21.30
2018-05-08T12:12:16.521Z,20.60
2018-05-08T12:14:53.338Z,20.60
2018-05-08T12:17:28.057Z,20.40
2018-05-08T12:20:04.565Z,20.30
2018-05-08T12:22:39.370Z,20.30
2018-05-08T12:25:14.228Z,20.50
2018-05-08T12:27:49.672Z,21.00
2018-05-08T12:30:24.036Z,21.20
2018-05-08T12:32:58.774Z,21.20
2018-05-08T12:35:33.477Z,21.40
2018-05-08T12:38:08.072Z,21.50
2018-05-08T12:40:42.917Z,21.30
2018-05-08T12:43:18.513Z,22.50
2018-05-08T12:45:53.158Z,22.50
2018-05-08T12:48:27.868Z,22.40
2018-05-08T12:51:03.393Z,22.30
2018-05-08T12:53:39.953Z,22.00
2018-05-08T12:56:17.838Z,21.50
2018-05-08T12:58:52.648Z,21.30
2018-05-08T13:01:28.140Z,21.30
2018-05-08T13:04:03.083Z,21.40
2018-05-08T13:06:49.018Z,21.30
2018-05-08T13:09:26.054Z,21.70
2018-05-08T13:12:00.969Z,21.70
2018-05-08T13:15:22.704Z,21.60
2018-05-08T13:18:01.419Z,21.50
2018-05-08T13:20:36.705Z,22.00
2018-05-08T13:23:11.163Z,22.00
2018-05-08T13:25:51.685Z,21.60
2018-05-08T13:28:27.579Z,20.90
2018-05-08T13:31:09.302Z,20.90
2018-05-08T13:33:45.503Z,21.00
2018-05-08T13:36:20.854Z,21.00
2018-05-08T13:38:59.568Z,20.90
2018-05-08T13:41:35.425Z,20.10
2018-05-08T13:44:10.195Z,20.10
2018-05-08T13:46:44.631Z,20.40
2018-05-08T13:49:19.504Z,20.70
2018-05-08T13:51:55.013Z,20.50
2018-05-08T13:57:28.657Z,21.00
2018-05-08T14:00:15.884Z,21.50
2018-05-08T14:02:54.333Z,21.00
2018-05-08T14:05:29.658Z,20.80
2018-05-08T14:08:07.233Z,20.80
2018-05-08T14:10:50.251Z,21.30
2018-05-08T14:16:14.001Z,21.60
2018-05-08T14:18:51.052Z,21.40
2018-05-08T14:21:30.046Z,21.40
2018-05-08T14:24:05.359Z,21.40
2018-05-08T14:26:56.031Z,21.50
2018-05-08T14:29:35.848Z,21.50
2018-05-08T14:32:11.543Z,21.50
2018-05-08T14:34:47.048Z,21.70
2018-05-08T14:37:22.722Z,21.50
2018-05-08T14:39:58.672Z,20.90
2018-05-08T14:42:41.217Z,20.30
2018-05-08T14:45:16.436Z,20.30
2018-05-08T14:47:51.123Z,20.30
2018-05-08T14:50:26.124Z,20.10
2018-05-08T14:55:17.619Z,19.80
2018-05-08T14:57:52.816Z,20.10
2018-05-08T15:00:28.039Z,20.20
2018-05-08T15:03:05.190Z,20.10
2018-05-08T15:05:42.071Z,20.40
2018-05-08T15:08:38.029Z,19.90
2018-05-08T15:11:16.914Z,20.50
2018-05-08T15:13:54.607Z,20.60
2018-05-08T15:16:33.315Z,20.50
2018-05-08T15:19:09.693Z,20.60
2018-05-08T15:21:46.106Z,20.70
2018-05-08T15:24:20.834Z,20.70
2018-05-08T15:27:18.471Z,20.90
2018-05-08T15:29:54.600Z,20.70
2018-05-08T15:32:59.416Z,20.70
2018-05-08T15:35:34.271Z,21.00
2018-05-08T15:38:39.053Z,21.10
2018-05-08T15:41:13.900Z,21.40
2018-05-08T15:43:50.000Z,21.80
2018-05-08T15:46:26.347Z,21.80
2018-05-08T15:49:02.503Z,21.80
2018-05-08T15:51:38.301Z,21.70
2018-05-08T15:54:16.587Z,21.70
2018-05-08T15:56:57.590Z,22.00
2018-05-08T15:59:33.433Z,22.20
2018-05-08T16:02:10.748Z,22.20
2018-05-08T16:11:02.840Z,22.90
2018-05-08T16:13:44.109Z,23.20
2018-05-08T16:16:31.742Z,23.40
2018-05-08T16:19:31.918Z,23.20
2018-05-08T16:22:12.912Z,23.20
2018-05-08T16:24:49.349Z,23.40
2018-05-08T16:27:36.636Z,23.90
2018-05-08T16:30:13.111Z,24.10
2018-05-08T16:32:48.324Z,24.10
2018-05-08T16:35:23.359Z,24.30
2018-05-08T16:37:59.505Z,24.60
2018-05-08T16:40:34.269Z,24.70
2018-05-08T16:43:10.991Z,24.80
2018-05-08T16:45:45.624Z,24.80
2018-05-08T16:51:31.595Z,25.20
2018-05-08T16:56:48.944Z,25.40
2018-05-08T16:59:25.712Z,25.40
2018-05-08T17:02:01.233Z,25.80
2018-05-08T17:04:36.033Z,25.80
2018-05-08T17:07:23.852Z,25.90
2018-05-08T17:13:22.800Z,26.80
2018-05-08T17:16:06.929Z,26.30
2018-05-08T17:18:45.386Z,26.80
2018-05-08T17:21:20.141Z,26.80
2018-05-08T17:23:55.183Z,27.00
2018-05-08T17:26:29.949Z,26.90
2018-05-08T17:29:04.494Z,26.90
2018-05-08T17:31:39.449Z,26.90
2018-05-08T17:34:14.162Z,27.00
2018-05-08T17:37:00.109Z,27.20
2018-05-08T17:39:44.404Z,27.30
2018-05-08T17:42:21.757Z,27.50
2018-05-08T17:45:05.400Z,27.50
2018-05-08T17:51:25.763Z,28.10
2018-05-08T17:54:02.038Z,28.10
2018-05-08T18:03:05.513Z,28.40
2018-05-08T18:05:42.179Z,28.40
2018-05-08T18:08:24.904Z,28.50
2018-05-08T18:11:10.557Z,28.60
2018-05-08T18:13:46.015Z,28.80
2018-05-08T18:16:20.488Z,28.80
2018-05-08T18:18:55.347Z,29.00
2018-05-08T18:21:30.683Z,29.10
2018-05-08T18:26:55.398Z,29.60
2018-05-08T18:29:30.105Z,29.60
2018-05-08T18:32:05.260Z,29.90
2018-05-08T18:37:19.052Z,30.00
2018-05-08T18:39:53.588Z,30.10
2018-05-08T18:42:28.149Z,30.40
2018-05-08T18:45:02.988Z,31.20
2018-05-08T18:47:37.718Z,32.10
2018-05-08T18:50:13.176Z,32.80
2018-05-08T18:52:48.817Z,33.00
2018-05-08T18:55:27.406Z,33.20
2018-05-08T18:58:02.881Z,33.20
2018-05-08T19:00:45.440Z,33.40
2018-05-08T19:03:19.979Z,34.40
2018-05-08T19:05:54.580Z,35.20
2018-05-08T19:08:29.588Z,35.60
2018-05-08T19:11:10.151Z,35.90
2018-05-08T19:13:45.020Z,36.30
2018-05-08T19:16:19.626Z,36.40
2018-05-08T19:18:58.840Z,36.30
2018-05-08T19:21:33.460Z,36.40
2018-05-08T19:24:12.517Z,36.10
2018-05-08T19:26:48.001Z,36.70
2018-05-08T19:31:31.151Z,37.30
2018-05-08T19:34:05.985Z,37.30
2018-05-08T19:38:48.397Z,37.10
2018-05-08T19:41:24.121Z,37.00
2018-05-08T19:43:58.805Z,37.00
2018-05-08T19:46:34.172Z,37.70
2018-05-08T19:49:10.839Z,37.70
2018-05-08T19:51:45.480Z,38.40
2018-05-08T19:54:20.364Z,38.80
2018-05-08T19:57:08.245Z,38.70
2018-05-08T19:59:42.912Z,38.70
2018-05-08T20:02:18.207Z,38.60
2018-05-08T20:04:53.528Z,38.60
2018-05-08T20:07:29.312Z,38.60
2018-05-08T20:10:04.265Z,38.90
2018-05-08T20:12:38.951Z,39.60
2018-05-08T20:15:14.701Z,39.70
2018-05-08T20:17:49.458Z,39.70
2018-05-08T20:20:25.015Z,40.60
2018-05-08T20:22:59.722Z,40.60
2018-05-08T20:25:34.379Z,41.40
2018-05-08T20:28:10.124Z,41.90
2018-05-08T20:30:45.675Z,42.40
2018-05-08T20:33:20.266Z,42.90
2018-05-08T20:35:54.797Z,43.20
2018-05-08T20:38:29.476Z,43.50
2018-05-08T20:41:05.154Z,43.80
2018-05-08T20:43:40.526Z,43.80
2018-05-08T20:46:15.952Z,43.90
2018-05-08T20:48:50.700Z,44.50
2018-05-08T20:51:25.769Z,44.80
2018-05-08T20:54:00.280Z,44.50
2018-05-08T20:56:34.880Z,44.70
2018-05-08T20:59:09.487Z,45.20
2018-05-08T21:01:44.628Z,45.10
2018-05-08T21:04:19.181Z,45.10
2018-05-08T21:06:56.440Z,45.00
2018-05-08T21:09:31.719Z,45.00
2018-05-08T21:12:06.454Z,45.00
2018-05-08T21:14:40.941Z,45.00
2018-05-08T21:17:15.473Z,45.10
2018-05-08T21:19:50.128Z,45.10
2018-05-08T21:22:24.727Z,45.20
2018-05-08T21:25:00.240Z,45.50
2018-05-08T21:27:39.391Z,45.50
2018-05-08T21:31:19.112Z,45.40
2018-05-08T21:33:55.314Z,45.30
2018-05-08T21:36:29.840Z,45.30
2018-05-08T21:39:05.362Z,44.90
2018-05-08T21:41:40.813Z,44.30
2018-05-08T21:44:15.459Z,44.30
2018-05-08T21:46:50.503Z,44.20
2018-05-08T21:49:25.036Z,44.30
2018-05-08T21:51:59.694Z,44.20
2018-05-08T21:54:34.339Z,43.80
2018-05-08T21:57:09.156Z,43.70
2018-05-08T21:59:43.807Z,43.40
2018-05-08T22:02:18.461Z,43.30
2018-05-08T22:04:53.015Z,43.20
2018-05-08T22:07:27.639Z,43.20
2018-05-08T22:10:02.153Z,43.10
2018-05-08T22:12:37.563Z,42.80
2018-05-08T22:15:12.119Z,42.80
2018-05-08T22:17:46.823Z,42.80
2018-05-08T22:20:30.563Z,42.60
2018-05-08T22:23:05.668Z,42.60
2018-05-08T22:25:40.388Z,42.40
2018-05-08T22:28:17.213Z,42.70
2018-05-08T22:30:51.920Z,42.80
2018-05-08T22:33:26.536Z,42.80
2018-05-08T22:36:02.048Z,43.00
2018-05-08T22:38:36.667Z,42.90
2018-05-08T22:41:11.146Z,42.80
2018-05-08T22:43:46.449Z,42.70
2018-05-08T22:46:21.072Z,42.80
2018-05-08T22:48:55.741Z,43.00
2018-05-08T22:51:31.108Z,42.80
2018-05-08T22:54:05.747Z,42.80
2018-05-08T22:56:40.155Z,42.90
2018-05-08T22:59:15.566Z,42.70
2018-05-08T23:01:50.983Z,42.80
2018-05-08T23:04:26.707Z,42.80
2018-05-08T23:07:02.565Z,42.80
2018-05-08T23:09:37.320Z,42.80
2018-05-08T23:12:12.188Z,42.70
2018-05-08T23:14:46.642Z,42.70
2018-05-08T23:17:21.297Z,42.80
2018-05-08T23:19:55.749Z,43.00
2018-05-08T23:22:30.116Z,43.10
2018-05-08T23:25:04.804Z,43.10
2018-05-08T23:27:39.424Z,43.00
2018-05-08T23:30:13.828Z,43.00
2018-05-08T23:32:48.539Z,43.00
2018-05-08T23:35:23.250Z,43.20
2018-05-08T23:37:57.989Z,43.30
2018-05-08T23:40:32.639Z,43.20
2018-05-08T23:43:07.912Z,43.60
2018-05-08T23:45:42.495Z,43.50
2018-05-08T23:48:17.242Z,43.70
2018-05-08T23:50:51.724Z,43.90
2018-05-08T23:53:26.516Z,44.00
2018-05-08T23:56:01.272Z,44.20
2018-05-08T23:58:35.790Z,44.50
